Archival Weather

Chicago O'Hare International

Chicago, Illinois (KORD)

Report from: Saturday, February 4, 2023 1:51 AM CST
Current time: Friday, April 19, 2024 2:58 AM CDT

Current weather – Weather history – Daily summaries
Weather forecast

Temperature-10.6°C (12.9°F)
Wind chill-17.9°C (-0.2°F)
Dew point-18.3°C (-0.9°F)
Winds 9 kts (4.6 m/s, 10.4 mph) South (170°)
Visibility10 mi. (16.1 km)
Clouds Ceiling: Broken clouds 4,600 ft. (1,402 m)
Altimeter30.39 in.Hg (1029 mB)
Relative humidity53 %
Density altitude-3,775 ft. (-1,150 m)
Sea-level pressure103.1 kPa (1031 mB, 30.44 in.Hg)
Remarks System requires maintenance
Automated weather observing station with precipitation discriminator
Flight conditions Visual Meteorological Conditions
Raw dataKORD 040751Z 17009KT 10SM BKN046 M11/M18 A3039 RMK AO2 SLP307 T11061183 $
An error has occurred. This application may no longer respond until reloaded. Reload 🗙